createdAt,value
2019-06-26T00:01:09.460Z,21.64
2019-06-26T00:05:17.924Z,21.72
2019-06-26T00:09:25.920Z,21.85
2019-06-26T00:13:33.400Z,21.86
2019-06-26T00:17:41.291Z,21.96
2019-06-26T00:21:48.784Z,21.83
2019-06-26T00:25:56.323Z,21.76
2019-06-26T00:30:05.226Z,21.63
2019-06-26T00:34:12.906Z,21.65
2019-06-26T00:38:21.286Z,21.48
2019-06-26T00:42:29.198Z,21.46
2019-06-26T00:46:36.632Z,21.46
2019-06-26T00:50:44.981Z,21.48
2019-06-26T00:54:52.485Z,21.37
2019-06-26T00:59:00.916Z,21.45
2019-06-26T01:03:08.308Z,21.37
2019-06-26T01:07:16.424Z,21.40
2019-06-26T01:11:24.213Z,21.50
2019-06-26T01:15:31.882Z,21.33
2019-06-26T01:19:39.788Z,21.26
2019-06-26T01:23:48.125Z,21.40
2019-06-26T01:27:55.530Z,21.53
2019-06-26T01:32:03.436Z,21.42
2019-06-26T01:36:10.932Z,21.57
2019-06-26T01:40:20.292Z,21.42
2019-06-26T01:44:27.681Z,21.35
2019-06-26T01:48:35.687Z,21.54
2019-06-26T01:52:43.196Z,21.50
2019-06-26T01:56:51.106Z,21.45
2019-06-26T02:00:58.989Z,21.58
2019-06-26T02:05:06.989Z,21.47
2019-06-26T02:09:14.689Z,21.44
2019-06-26T02:13:22.178Z,21.49
2019-06-26T02:17:31.855Z,21.54
2019-06-26T02:21:39.845Z,21.52
2019-06-26T02:25:47.351Z,21.47
2019-06-26T02:29:55.734Z,21.52
2019-06-26T02:34:03.235Z,21.64
2019-06-26T02:38:10.941Z,21.45
2019-06-26T02:42:18.930Z,21.58
2019-06-26T02:46:26.419Z,21.66
2019-06-26T02:50:34.575Z,21.69
2019-06-26T02:54:43.572Z,21.75
2019-06-26T02:58:52.559Z,21.70
2019-06-26T03:03:00.563Z,21.83
2019-06-26T03:07:08.404Z,21.85
2019-06-26T03:11:16.317Z,22.03
2019-06-26T03:15:23.915Z,22.07
2019-06-26T03:19:32.305Z,22.08
2019-06-26T03:23:39.814Z,22.12
2019-06-26T03:27:47.312Z,22.22
2019-06-26T03:31:55.301Z,22.11
2019-06-26T03:36:02.706Z,22.22
2019-06-26T03:40:10.404Z,22.21
2019-06-26T03:44:18.241Z,22.27
2019-06-26T03:48:25.794Z,22.36
2019-06-26T03:52:33.863Z,22.42
2019-06-26T03:56:42.026Z,22.46
2019-06-26T04:00:50.845Z,22.62
2019-06-26T04:04:58.837Z,22.93
2019-06-26T04:09:07.410Z,23.02
2019-06-26T04:13:15.434Z,22.95
2019-06-26T04:17:23.423Z,23.05
2019-06-26T04:21:31.021Z,23.24
2019-06-26T04:25:39.009Z,23.33
2019-06-26T04:29:47.494Z,23.42
2019-06-26T04:33:55.022Z,23.58
2019-06-26T04:38:04.103Z,23.75
2019-06-26T04:42:12.789Z,23.93
2019-06-26T04:46:21.590Z,24.09
2019-06-26T04:50:29.576Z,24.23
2019-06-26T04:54:37.446Z,24.53
2019-06-26T04:58:47.174Z,24.65
2019-06-26T05:02:56.015Z,24.86
2019-06-26T05:07:04.317Z,24.93
2019-06-26T05:11:12.993Z,25.07
2019-06-26T05:15:21.178Z,25.30
2019-06-26T05:19:29.089Z,25.36
2019-06-26T05:23:37.316Z,25.59
2019-06-26T05:27:45.209Z,25.81
2019-06-26T05:31:54.249Z,26.09
2019-06-26T05:36:02.664Z,26.11
2019-06-26T05:40:11.183Z,26.39
2019-06-26T05:44:19.529Z,26.67
2019-06-26T05:48:27.223Z,27.24
2019-06-26T05:52:35.853Z,27.24
2019-06-26T05:56:45.453Z,27.42
2019-06-26T06:00:53.225Z,27.56
2019-06-26T06:05:01.598Z,27.82
2019-06-26T06:09:09.751Z,28.10
2019-06-26T06:13:17.667Z,28.15
2019-06-26T06:17:25.819Z,28.15
2019-06-26T06:21:33.823Z,28.28
2019-06-26T06:31:19.574Z,28.58
2019-06-26T06:35:27.687Z,28.55
2019-06-26T06:39:35.760Z,28.78
2019-06-26T06:43:43.677Z,29.04
2019-06-26T06:47:51.958Z,28.79
2019-06-26T06:51:59.642Z,28.79
2019-06-26T06:56:07.864Z,28.92
2019-06-26T07:00:16.880Z,29.02
2019-06-26T07:04:24.942Z,29.30
2019-06-26T07:08:33.126Z,29.56
2019-06-26T07:12:42.217Z,29.67
2019-06-26T07:16:50.099Z,29.84
2019-06-26T07:20:58.230Z,30.02
2019-06-26T07:25:06.537Z,30.11
2019-06-26T07:29:14.220Z,30.39
2019-06-26T07:33:22.572Z,30.69
2019-06-26T07:37:30.766Z,30.88
2019-06-26T07:41:38.884Z,31.10
2019-06-26T07:45:47.938Z,31.47
2019-06-26T07:49:56.741Z,31.86
2019-06-26T07:54:04.832Z,31.83
2019-06-26T07:58:12.864Z,31.96
2019-06-26T08:02:20.693Z,32.13
2019-06-26T08:06:28.487Z,32.20
2019-06-26T08:10:36.281Z,32.31
2019-06-26T08:14:44.202Z,32.56
2019-06-26T08:18:52.295Z,31.76
2019-06-26T08:23:00.165Z,31.35
2019-06-26T08:27:08.549Z,31.96
2019-06-26T08:31:16.770Z,31.93
2019-06-26T08:35:24.520Z,31.20
2019-06-26T08:39:32.491Z,31.36
2019-06-26T08:43:40.631Z,31.59
2019-06-26T08:47:48.523Z,32.02
2019-06-26T08:51:56.960Z,32.40
2019-06-26T08:56:05.088Z,31.90
2019-06-26T09:00:15.558Z,32.54
2019-06-26T09:04:23.597Z,32.06
2019-06-26T09:08:31.633Z,31.31
2019-06-26T09:12:39.602Z,31.86
2019-06-26T09:16:47.409Z,32.47
2019-06-26T09:20:55.127Z,32.53
2019-06-26T09:25:16.847Z,31.40
2019-06-26T09:29:12.487Z,31.11
2019-06-26T09:33:20.176Z,31.40
2019-06-26T09:37:29.123Z,31.00
2019-06-26T09:41:36.890Z,30.59
2019-06-26T09:45:44.842Z,30.83
2019-06-26T09:49:53.863Z,31.77
2019-06-26T09:54:01.884Z,31.11
2019-06-26T09:58:13.195Z,30.70
2019-06-26T10:02:19.871Z,30.60
2019-06-26T10:06:27.509Z,31.16
2019-06-26T10:10:35.774Z,31.07
2019-06-26T10:14:47.690Z,31.46
2019-06-26T10:19:08.982Z,31.89
2019-06-26T10:23:04.578Z,32.53
2019-06-26T10:27:12.426Z,32.54
2019-06-26T10:31:20.393Z,32.04
2019-06-26T10:35:28.588Z,32.12
2019-06-26T10:39:36.269Z,31.77
2019-06-26T10:43:44.232Z,31.45
2019-06-26T10:47:52.106Z,31.18
2019-06-26T10:52:00.411Z,31.29
2019-06-26T10:56:08.541Z,31.07
2019-06-26T11:00:16.892Z,30.96
2019-06-26T11:04:24.780Z,30.91
2019-06-26T11:08:33.003Z,31.09
2019-06-26T11:12:41.007Z,31.10
2019-06-26T11:16:48.939Z,31.64
2019-06-26T11:20:57.168Z,31.34
2019-06-26T11:25:05.206Z,31.02
2019-06-26T11:29:13.268Z,30.67
2019-06-26T11:33:21.109Z,30.61
2019-06-26T11:37:28.926Z,30.57
2019-06-26T11:41:37.632Z,30.98
2019-06-26T11:45:45.461Z,31.32
2019-06-26T11:49:59.829Z,31.72
2019-06-26T11:54:02.999Z,31.59
2019-06-26T11:58:10.926Z,31.73
2019-06-26T12:02:19.030Z,31.95
2019-06-26T12:06:26.782Z,32.39
2019-06-26T12:10:34.981Z,32.65
2019-06-26T12:14:42.879Z,32.97
2019-06-26T12:18:50.606Z,32.97
2019-06-26T12:22:58.576Z,33.25
2019-06-26T12:27:06.575Z,33.42
2019-06-26T12:31:14.719Z,33.60
2019-06-26T12:35:22.786Z,33.69
2019-06-26T12:39:30.790Z,33.68
2019-06-26T12:43:38.682Z,33.53
2019-06-26T12:47:46.497Z,33.25
2019-06-26T12:51:54.409Z,33.38
2019-06-26T12:56:03.343Z,33.52
2019-06-26T13:00:11.877Z,33.27
2019-06-26T13:04:19.796Z,32.94
2019-06-26T13:08:28.006Z,32.84
2019-06-26T13:12:37.751Z,32.65
2019-06-26T13:16:45.573Z,32.69
2019-06-26T13:20:53.992Z,32.74
2019-06-26T13:25:02.019Z,32.79
2019-06-26T13:29:10.642Z,32.68
2019-06-26T13:33:18.548Z,32.67
2019-06-26T13:37:26.481Z,32.41
2019-06-26T13:41:34.578Z,32.59
2019-06-26T13:45:42.521Z,32.51
2019-06-26T13:49:50.367Z,32.55
2019-06-26T13:53:58.704Z,32.83
2019-06-26T13:58:06.444Z,32.74
2019-06-26T14:02:14.832Z,32.60
2019-06-26T14:06:24.031Z,32.43
2019-06-26T14:10:32.091Z,32.22
2019-06-26T14:14:56.131Z,32.55
2019-06-26T14:18:49.984Z,32.48
2019-06-26T14:22:57.915Z,32.69
2019-06-26T14:27:05.810Z,32.45
2019-06-26T14:31:13.454Z,32.41
2019-06-26T14:35:21.817Z,32.22
2019-06-26T14:39:30.083Z,32.15
2019-06-26T14:43:38.052Z,32.07
2019-06-26T14:47:46.210Z,31.93
2019-06-26T14:51:54.416Z,31.68
2019-06-26T14:56:02.419Z,31.71
2019-06-26T15:00:11.204Z,31.87
2019-06-26T15:04:19.077Z,31.39
2019-06-26T15:08:27.085Z,31.22
2019-06-26T15:12:35.130Z,30.69
2019-06-26T15:16:43.132Z,30.41
2019-06-26T15:20:52.521Z,30.18
2019-06-26T15:25:02.184Z,30.09
2019-06-26T15:29:09.395Z,30.32
2019-06-26T15:33:17.341Z,30.08
2019-06-26T15:37:25.631Z,29.90
2019-06-26T15:41:34.090Z,29.67
2019-06-26T15:45:42.605Z,29.82
2019-06-26T15:49:50.734Z,29.67
2019-06-26T15:54:00.095Z,29.76
2019-06-26T15:58:08.226Z,29.76
2019-06-26T16:02:16.472Z,29.88
2019-06-26T16:06:27.071Z,29.66
2019-06-26T16:10:35.278Z,29.23
2019-06-26T16:14:43.180Z,28.97
2019-06-26T16:18:56.569Z,28.96
2019-06-26T16:23:04.656Z,28.98
2019-06-26T16:27:12.658Z,28.98
2019-06-26T16:31:20.878Z,28.81
2019-06-26T16:35:29.046Z,28.93
2019-06-26T16:39:37.026Z,28.85
2019-06-26T16:43:44.859Z,28.87
2019-06-26T16:47:52.643Z,28.92
2019-06-26T16:52:00.978Z,28.84
2019-06-26T16:56:08.849Z,28.83
2019-06-26T17:00:18.934Z,28.65
2019-06-26T17:04:26.893Z,28.42
2019-06-26T17:08:34.840Z,28.36
2019-06-26T17:12:43.303Z,28.16
2019-06-26T17:16:51.230Z,28.27
2019-06-26T17:20:59.571Z,28.11
2019-06-26T17:25:07.594Z,27.89
2019-06-26T17:29:15.554Z,27.71
2019-06-26T17:33:23.889Z,27.67
2019-06-26T17:37:32.025Z,27.50
2019-06-26T17:41:39.941Z,27.40
2019-06-26T17:45:48.208Z,27.27
2019-06-26T17:49:56.736Z,27.31
2019-06-26T17:54:05.443Z,27.14
2019-06-26T17:58:13.816Z,27.05
2019-06-26T18:02:23.121Z,27.02
2019-06-26T18:06:31.241Z,26.94
2019-06-26T18:10:39.425Z,26.82
2019-06-26T18:14:47.883Z,26.74
2019-06-26T18:18:55.967Z,26.61
2019-06-26T18:23:07.506Z,26.64
2019-06-26T18:27:14.184Z,26.53
2019-06-26T18:31:22.416Z,26.53
2019-06-26T18:35:30.418Z,26.13
2019-06-26T18:39:38.639Z,26.13
2019-06-26T18:43:46.379Z,26.07
2019-06-26T18:47:55.051Z,25.90
2019-06-26T18:52:03.095Z,25.75
2019-06-26T18:56:11.492Z,25.67
2019-06-26T19:00:19.738Z,25.56
2019-06-26T19:04:27.587Z,25.70
2019-06-26T19:08:35.827Z,25.47
2019-06-26T19:12:43.953Z,25.41
2019-06-26T19:16:51.879Z,25.30
2019-06-26T19:20:59.985Z,25.37
2019-06-26T19:25:08.525Z,25.37
2019-06-26T19:29:16.748Z,25.30
2019-06-26T19:33:24.727Z,25.22
2019-06-26T19:37:33.083Z,25.19
2019-06-26T19:41:41.109Z,25.08
2019-06-26T19:45:48.846Z,25.12
2019-06-26T19:49:56.596Z,25.19
2019-06-26T19:54:05.026Z,25.26
2019-06-26T19:58:13.306Z,25.32
2019-06-26T20:02:21.384Z,25.19
2019-06-26T20:07:04.055Z,25.36
2019-06-26T20:11:53.346Z,24.75
2019-06-26T20:17:02.836Z,24.75
2019-06-26T20:21:44.955Z,24.69
2019-06-26T20:26:19.485Z,24.69
2019-06-26T20:31:19.873Z,24.77
2019-06-26T20:36:23.251Z,24.73
2019-06-26T20:46:08.900Z,24.81
2019-06-26T20:51:08.596Z,24.88
2019-06-26T20:55:50.601Z,24.88
2019-06-26T21:00:30.415Z,24.86
2019-06-26T21:04:55.899Z,24.78
2019-06-26T21:14:32.903Z,24.92
2019-06-26T21:19:26.408Z,24.92
2019-06-26T21:23:54.810Z,25.06
2019-06-26T21:28:52.989Z,24.97
2019-06-26T21:33:48.383Z,24.73
2019-06-26T21:38:37.822Z,24.83
2019-06-26T21:43:20.248Z,24.61
2019-06-26T21:48:15.958Z,24.83
2019-06-26T21:52:33.723Z,24.78
2019-06-26T21:56:41.936Z,24.81
2019-06-26T22:01:07.643Z,24.84
2019-06-26T22:05:33.615Z,24.93
2019-06-26T22:10:01.338Z,24.93
2019-06-26T22:14:11.113Z,24.73
2019-06-26T22:18:19.115Z,24.71
2019-06-26T22:22:28.553Z,24.71
2019-06-26T22:26:36.620Z,24.70
2019-06-26T22:30:44.642Z,24.58
2019-06-26T22:34:52.619Z,24.49
2019-06-26T22:39:00.838Z,24.29
2019-06-26T22:43:10.281Z,24.28
2019-06-26T22:47:18.707Z,24.44
2019-06-26T22:51:27.467Z,24.27
2019-06-26T22:55:35.461Z,24.15
2019-06-26T22:59:43.699Z,24.32
2019-06-26T23:03:51.695Z,24.44
2019-06-26T23:08:00.021Z,24.40
2019-06-26T23:12:07.861Z,24.31
2019-06-26T23:16:15.728Z,24.06
2019-06-26T23:20:23.762Z,24.06
2019-06-26T23:24:31.678Z,23.64
2019-06-26T23:28:39.538Z,23.51
2019-06-26T23:32:47.792Z,23.40
2019-06-26T23:36:55.626Z,23.18
2019-06-26T23:41:03.746Z,23.03
2019-06-26T23:45:11.967Z,22.83
2019-06-26T23:49:19.568Z,22.75
2019-06-26T23:53:27.675Z,22.87
2019-06-26T23:57:35.462Z,22.86
